Time;durP1;ratioP1;P1;durP2;ratioP2;P2;SDS_P1;SDS_P2;PMS_P1;PMS_P2;Temp;Humidity;BMP_temperature;BMP_pressure;BME280_temperature;BME280_humidity;BME280_pressure;Samples;Min_cycle;Max_cycle;Signal;HPM_P1;HPM_P2
2021/08/08 07:02:36;;;;;;;1.15;0.70;;;;;;;22.21;55.62;98437.38;4926253;29;20092;-77
2021/08/08 07:05:04;;;;;;;0.50;0.50;;;;;;;22.31;55.63;98438.41;4927835;29;20048;-77
2021/08/08 07:07:29;;;;;;;4.60;0.68;;;;;;;23.43;55.03;98437.28;4928073;29;20041;-77
2021/08/08 07:09:55;;;;;;;1.58;0.60;;;;;;;24.31;48.69;98433.00;4928540;29;20074;-77
2021/08/08 07:12:21;;;;;;;0.77;0.52;;;;;;;24.82;48.02;98434.28;4922279;29;20149;-77
2021/08/08 07:14:47;;;;;;;7.57;0.95;;;;;;;25.98;45.61;98435.13;4922392;29;20027;-73
2021/08/08 07:17:12;;;;;;;3.45;0.88;;;;;;;26.65;43.48;98428.34;4922198;29;20507;-73
2021/08/08 07:19:37;;;;;;;2.38;0.70;;;;;;;26.44;43.34;98424.94;4921961;29;20039;-72
2021/08/08 07:22:03;;;;;;;2.53;0.73;;;;;;;26.12;44.37;98431.25;4936428;29;20028;-72
2021/08/08 07:24:28;;;;;;;2.28;0.63;;;;;;;26.31;43.63;98436.63;4922008;29;20032;-72
2021/08/08 07:26:54;;;;;;;1.38;0.50;;;;;;;26.62;41.75;98449.88;4921862;29;20639;-72
2021/08/08 07:29:19;;;;;;;3.75;0.93;;;;;;;26.44;42.27;98457.66;4921776;29;20441;-72
2021/08/08 07:31:45;;;;;;;2.08;0.75;;;;;;;25.14;45.48;98460.78;4921963;29;20035;-72
2021/08/08 07:34:10;;;;;;;2.95;0.73;;;;;;;25.31;44.82;98457.59;4921520;29;20036;-73
2021/08/08 07:36:35;;;;;;;4.18;1.60;;;;;;;26.43;42.97;98455.16;4936618;29;20030;-73
2021/08/08 07:39:01;;;;;;;2.55;0.55;;;;;;;26.63;42.87;98459.53;4921848;29;20027;-73
2021/08/08 07:41:26;;;;;;;3.22;0.95;;;;;;;25.86;45.13;98458.22;4921050;29;20056;-73
2021/08/08 07:43:52;;;;;;;0.93;0.55;;;;;;;27.34;41.69;98452.19;4921457;29;20110;-72
2021/08/08 07:46:17;;;;;;;4.53;0.80;;;;;;;27.06;40.76;98455.66;4921624;29;20031;-72
2021/08/08 07:48:44;;;;;;;2.58;0.70;;;;;;;25.95;41.78;98461.91;4921510;29;20536;-72
2021/08/08 07:51:10;;;;;;;4.13;0.68;;;;;;;24.70;45.22;98462.59;4921489;29;20032;-72
2021/08/08 07:53:35;;;;;;;2.40;0.80;;;;;;;23.85;45.91;98473.69;4921456;29;20122;-72
2021/08/08 07:56:01;;;;;;;1.40;0.85;;;;;;;23.95;46.54;98473.00;4921306;29;20043;-72
2021/08/08 07:58:26;;;;;;;3.25;0.82;;;;;;;22.32;49.97;98474.41;4921279;29;21291;-72
2021/08/08 08:00:51;;;;;;;1.25;0.60;;;;;;;24.04;46.39;98474.94;4921051;29;20047;-72
2021/08/08 08:03:17;;;;;;;2.13;0.90;;;;;;;24.63;45.18;98471.19;4921281;29;20027;-72
2021/08/08 08:05:42;;;;;;;4.47;1.27;;;;;;;24.10;46.04;98474.44;4921094;29;20036;-72
2021/08/08 08:08:09;;;;;;;3.55;1.42;;;;;;;22.76;50.31;98475.66;4921102;29;20146;-73
2021/08/08 08:10:34;;;;;;;7.28;0.88;;;;;;;23.49;48.71;98476.47;4919854;29;20115;-73
2021/08/08 08:13:00;;;;;;;3.00;0.75;;;;;;;23.71;46.99;98479.22;4920842;29;20110;-72
2021/08/08 08:15:28;;;;;;;3.80;0.88;;;;;;;22.17;52.48;98480.78;4921118;29;20078;-72
2021/08/08 08:17:53;;;;;;;1.98;0.65;;;;;;;24.25;46.09;98475.03;4921014;29;20034;-72
2021/08/08 08:20:18;;;;;;;3.70;1.00;;;;;;;25.93;42.46;98471.00;4920790;29;20629;-72
2021/08/08 08:22:44;;;;;;;4.35;1.25;;;;;;;26.89;40.30;98463.38;4920692;29;20492;-72
2021/08/08 08:25:10;;;;;;;3.83;0.95;;;;;;;27.39;39.47;98468.56;4921011;29;20032;-72
2021/08/08 08:27:35;;;;;;;2.63;0.70;;;;;;;26.39;39.63;98466.00;4920656;29;20038;-72
2021/08/08 08:30:01;;;;;;;1.85;0.77;;;;;;;26.60;39.78;98470.47;4919511;29;20020;-73
2021/08/08 08:32:26;;;;;;;1.92;0.65;;;;;;;27.03;38.51;98463.91;4920665;29;20127;-73
2021/08/08 08:34:52;;;;;;;4.00;0.70;;;;;;;27.45;38.43;98474.31;4920597;29;20027;-72
2021/08/08 08:37:19;;;;;;;1.80;0.52;;;;;;;28.71;36.76;98469.41;4920739;29;20118;-74
2021/08/08 08:39:44;;;;;;;10.07;1.42;;;;;;;28.86;34.90;98472.41;4920588;29;20034;-73
2021/08/08 08:42:11;;;;;;;1.90;0.60;;;;;;;28.01;37.04;98486.84;4920659;29;20032;-74
2021/08/08 08:44:36;;;;;;;3.60;0.50;;;;;;;27.95;36.66;98482.09;4920864;29;21258;-73
2021/08/08 08:47:02;;;;;;;1.35;0.70;;;;;;;28.70;35.32;98475.75;4920788;29;20023;-74
2021/08/08 08:49:29;;;;;;;2.05;1.08;;;;;;;29.23;33.18;98480.31;4920423;29;20039;-74
2021/08/08 08:52:01;;;;;;;3.25;1.10;;;;;;;27.76;37.85;98483.00;4920554;29;20086;-73
2021/08/08 08:54:29;;;;;;;2.72;0.85;;;;;;;25.58;41.61;98472.16;4919913;29;20039;-73
2021/08/08 08:56:56;;;;;;;1.83;0.73;;;;;;;22.92;47.64;98486.00;4920472;29;21341;-73
2021/08/08 08:59:22;;;;;;;3.33;0.82;;;;;;;22.25;48.71;98481.09;4920194;29;20469;-72
2021/08/08 09:01:47;;;;;;;5.57;1.10;;;;;;;23.54;45.66;98482.25;4920032;29;20071;-72
2021/08/08 09:04:12;;;;;;;3.28;1.10;;;;;;;25.54;41.35;98479.53;4920293;29;20038;-73
2021/08/08 09:06:40;;;;;;;2.40;0.90;;;;;;;27.38;37.35;98472.22;4920322;29;20039;-73
2021/08/08 09:09:05;;;;;;;3.72;0.63;;;;;;;28.20;37.41;98475.28;4920456;29;20032;-73
2021/08/08 09:11:42;;;;;;;0.98;0.47;;;;;;;27.80;37.59;98485.22;4918882;29;20027;-73
2021/08/08 09:14:10;;;;;;;2.00;0.52;;;;;;;25.60;39.98;98486.13;4920442;29;20032;-73
2021/08/08 09:16:42;;;;;;;0.70;0.57;;;;;;;24.85;40.88;98487.88;4920102;29;20395;-72
2021/08/08 09:19:20;;;;;;;3.10;0.80;;;;;;;25.55;39.49;98475.91;4920110;29;20366;-74
2021/08/08 09:21:45;;;;;;;2.53;0.90;;;;;;;23.35;44.61;98490.72;4920284;29;20425;-74
2021/08/08 09:24:21;;;;;;;2.22;0.80;;;;;;;23.32;46.55;98489.19;4920106;29;20040;-72
2021/08/08 09:26:47;;;;;;;1.85;0.82;;;;;;;22.70;47.84;98494.59;4920341;29;20332;-73
2021/08/08 09:29:15;;;;;;;4.75;0.90;;;;;;;22.25;49.16;98496.94;4920146;29;20116;-76
2021/08/08 09:31:46;;;;;;;4.53;0.85;;;;;;;21.93;50.07;98491.22;4920247;29;20481;-78
2021/08/08 09:34:29;;;;;;;3.70;0.85;;;;;;;21.89;50.07;98494.16;4920209;29;20031;-73
2021/08/08 09:36:57;;;;;;;3.78;1.38;;;;;;;21.68;49.32;98497.31;4920096;29;20039;-72
2021/08/08 09:39:41;;;;;;;3.55;0.90;;;;;;;22.44;48.01;98495.63;4919949;29;20020;-71
2021/08/08 09:42:10;;;;;;;2.00;0.80;;;;;;;23.22;45.39;98504.03;4919883;29;20034;-73
2021/08/08 09:44:37;;;;;;;2.85;1.08;;;;;;;21.90;48.89;98509.88;4920197;29;20046;-72
2021/08/08 09:47:03;;;;;;;3.40;0.75;;;;;;;21.53;50.07;98508.91;4917907;29;20040;-72
2021/08/08 09:49:29;;;;;;;3.03;0.82;;;;;;;21.58;49.96;98512.09;4918246;29;20025;-72
2021/08/08 09:51:54;;;;;;;2.00;0.73;;;;;;;22.61;47.82;98503.19;4919604;29;20397;-72
2021/08/08 09:54:20;;;;;;;3.88;1.40;;;;;;;23.55;45.93;98505.97;4920066;29;20452;-72
2021/08/08 09:57:00;;;;;;;2.22;0.70;;;;;;;24.05;42.64;98497.78;4919890;29;20038;-72
2021/08/08 09:59:25;;;;;;;2.22;0.80;;;;;;;24.16;42.01;98495.13;4919619;29;20111;-72
2021/08/08 10:01:51;;;;;;;3.13;0.90;;;;;;;23.79;43.79;98497.16;4919606;29;20054;-72
2021/08/08 10:04:16;;;;;;;1.48;0.90;;;;;;;23.10;44.95;98497.00;4920147;29;20039;-72
2021/08/08 10:06:43;;;;;;;3.63;0.60;;;;;;;25.06;40.38;98500.34;4923185;29;20485;-72
2021/08/08 10:09:11;;;;;;;1.90;0.65;;;;;;;24.65;40.59;98504.53;4923120;29;20074;-72
2021/08/08 10:11:38;;;;;;;2.72;0.70;;;;;;;24.73;40.32;98499.47;4923245;29;20031;-72
2021/08/08 10:14:05;;;;;;;1.25;0.70;;;;;;;24.97;39.83;98501.09;4922938;29;20092;-72
2021/08/08 10:16:32;;;;;;;2.00;0.60;;;;;;;25.55;37.38;98496.31;4937892;29;20028;-72
2021/08/08 10:19:03;;;;;;;1.92;1.00;;;;;;;26.17;38.30;98500.75;4923006;29;20028;-72
2021/08/08 10:21:31;;;;;;;4.90;1.02;;;;;;;26.74;36.72;98501.97;4923178;29;20067;-72
2021/08/08 10:24:02;;;;;;;3.10;0.82;;;;;;;26.34;38.73;98500.13;4923047;29;20036;-72
2021/08/08 10:26:27;;;;;;;1.83;0.80;;;;;;;25.53;38.47;98503.53;4922958;29;20040;-72
2021/08/08 10:28:53;;;;;;;5.93;0.90;;;;;;;24.70;41.52;98494.38;4922465;29;20028;-74
2021/08/08 10:31:22;;;;;;;1.70;1.00;;;;;;;25.20;40.22;98486.81;4922791;29;20086;-72
2021/08/08 10:33:53;;;;;;;4.70;0.95;;;;;;;25.72;40.49;98493.03;4922955;29;20719;-72
2021/08/08 10:36:24;;;;;;;4.13;0.75;;;;;;;25.61;39.42;98485.16;4923020;29;21026;-72
2021/08/08 10:38:52;;;;;;;1.58;0.70;;;;;;;25.47;39.21;98488.13;4922234;29;20547;-72
2021/08/08 10:41:18;;;;;;;2.83;0.98;;;;;;;25.86;38.65;98484.78;4925052;29;20063;-73
2021/08/08 10:43:46;;;;;;;2.28;0.82;;;;;;;26.28;37.38;98478.56;4922707;29;20083;-73
2021/08/08 10:46:16;;;;;;;2.92;0.80;;;;;;;26.13;38.88;98475.44;4922521;29;20027;-72
2021/08/08 10:48:43;;;;;;;4.53;0.88;;;;;;;25.92;37.72;98486.09;4921160;29;20035;-73
2021/08/08 10:51:21;;;;;;;6.43;0.80;;;;;;;26.09;39.29;98484.63;4922351;29;20036;-72
2021/08/08 10:54:03;;;;;;;4.57;0.75;;;;;;;25.46;38.32;98481.16;4922801;29;20028;-72
2021/08/08 10:56:48;;;;;;;1.73;0.82;;;;;;;25.95;37.45;98484.97;4922417;29;20051;-73
2021/08/08 10:59:37;;;;;;;2.42;0.85;;;;;;;25.72;39.16;98493.03;4922289;29;20126;-74
2021/08/08 11:02:10;;;;;;;1.70;0.70;;;;;;;25.72;38.53;98498.34;4920043;29;20134;-74
2021/08/08 11:04:36;;;;;;;1.08;0.68;;;;;;;25.74;38.03;98496.44;4922550;29;20131;-73
2021/08/08 11:07:04;;;;;;;3.90;0.95;;;;;;;24.75;38.81;98491.38;4922069;29;20048;-74
2021/08/08 11:09:39;;;;;;;1.15;0.70;;;;;;;25.33;38.96;98484.81;4921955;29;20051;-74
2021/08/08 11:12:06;;;;;;;1.67;0.77;;;;;;;26.18;38.39;98489.16;4921942;29;20056;-74
2021/08/08 11:14:32;;;;;;;1.30;0.75;;;;;;;27.35;37.71;98483.13;4921780;29;20038;-74
2021/08/08 11:17:06;;;;;;;1.05;0.70;;;;;;;30.80;30.80;98481.13;4921542;29;21343;-74
2021/08/08 11:19:40;;;;;;;6.15;1.52;;;;;;;28.45;34.52;98479.13;4921686;29;20027;-74
2021/08/08 11:22:09;;;;;;;4.18;1.20;;;;;;;28.19;33.80;98474.44;4921863;29;20120;-74
2021/08/08 11:24:35;;;;;;;2.13;0.90;;;;;;;29.59;31.21;98475.81;4921790;29;20028;-74
2021/08/08 11:27:00;;;;;;;4.75;0.90;;;;;;;29.06;32.08;98474.00;4921817;29;20043;-74
2021/08/08 11:29:26;;;;;;;4.32;0.57;;;;;;;27.60;34.60;98483.53;4921596;29;20024;-74
2021/08/08 11:31:57;;;;;;;3.20;1.10;;;;;;;25.60;37.92;98494.09;4921446;29;20043;-74
2021/08/08 11:34:26;;;;;;;11.98;5.20;;;;;;;24.72;38.81;98492.47;4921644;29;20509;-74
2021/08/08 11:36:51;;;;;;;3.60;1.27;;;;;;;23.91;40.69;98498.00;4921730;29;20110;-73
2021/08/08 11:39:17;;;;;;;4.63;1.10;;;;;;;23.44;41.77;98502.44;4921141;29;20039;-73
2021/08/08 11:41:43;;;;;;;2.55;0.80;;;;;;;24.50;39.84;98495.16;4921342;29;20481;-73
2021/08/08 11:44:13;;;;;;;3.70;0.80;;;;;;;24.26;39.98;98501.38;4921486;29;20083;-74
2021/08/08 11:46:41;;;;;;;1.48;0.90;;;;;;;24.66;39.15;98492.97;4921614;29;20027;-74
2021/08/08 11:49:21;;;;;;;2.10;1.00;;;;;;;23.42;40.36;98499.91;4921039;29;20020;-73
2021/08/08 11:52:02;;;;;;;1.88;0.90;;;;;;;24.31;38.91;98496.56;4921301;29;20043;-73
2021/08/08 11:54:32;;;;;;;4.80;0.93;;;;;;;24.37;39.46;98508.53;4921443;29;20083;-73
2021/08/08 11:56:59;;;;;;;3.92;1.20;;;;;;;23.45;41.17;98501.47;4921319;29;20023;-73
2021/08/08 11:59:30;;;;;;;1.98;0.73;;;;;;;23.27;42.08;98501.06;4921040;29;20024;-73
2021/08/08 12:02:04;;;;;;;1.88;0.90;;;;;;;25.86;37.67;98495.41;4920747;29;20035;-73
2021/08/08 12:04:32;;;;;;;2.20;0.70;;;;;;;26.24;36.08;98501.06;4921172;29;20046;-73
2021/08/08 12:06:57;;;;;;;2.55;0.80;;;;;;;25.68;36.28;98501.44;4921246;29;20031;-73
2021/08/08 12:09:23;;;;;;;1.10;0.93;;;;;;;25.29;37.80;98507.28;4921235;29;20084;-73
2021/08/08 12:11:53;;;;;;;2.33;0.98;;;;;;;25.42;38.24;98495.63;4920933;29;20405;-73
2021/08/08 12:14:40;;;;;;;2.60;1.00;;;;;;;24.92;38.52;98497.97;4921014;29;20040;-73
2021/08/08 12:17:09;;;;;;;1.52;0.70;;;;;;;25.02;38.20;98504.22;4920942;29;20028;-73
2021/08/08 12:19:36;;;;;;;;;;;;;;;25.04;41.41;98504.91;4921088;29;20030;-74
2021/08/08 12:22:11;;;;;;;3.90;1.15;;;;;;;21.85;47.78;98546.28;4919185;29;19922;-73
2021/08/08 12:24:40;;;;;;;4.18;1.10;;;;;;;22.35;47.48;98538.53;4920705;29;20046;-74
2021/08/08 12:27:07;;;;;;;2.50;0.73;;;;;;;21.30;49.63;98577.16;4920834;29;20516;-74
2021/08/08 12:29:40;;;;;;;6.80;0.93;;;;;;;21.09;51.00;98594.34;4920591;29;20051;-74
2021/08/08 12:32:07;;;;;;;4.95;1.15;;;;;;;20.48;50.34;98599.00;4920350;29;20418;-73
2021/08/08 12:34:32;;;;;;;7.63;1.42;;;;;;;20.65;50.80;98611.16;4920636;29;20036;-74
2021/08/08 12:37:03;;;;;;;3.28;0.95;;;;;;;20.56;51.61;98601.19;4920343;29;20392;-73
2021/08/08 12:39:28;;;;;;;1.52;0.88;;;;;;;20.78;49.77;98590.16;4920799;29;20067;-74
2021/08/08 12:41:54;;;;;;;1.98;0.80;;;;;;;21.07;47.34;98590.94;4920040;29;20746;-74
2021/08/08 12:44:30;;;;;;;1.63;1.00;;;;;;;21.76;47.41;98591.78;4920551;29;20031;-74
2021/08/08 12:47:01;;;;;;;3.05;0.80;;;;;;;21.97;47.24;98598.22;4920592;29;20056;-74
2021/08/08 12:49:33;;;;;;;2.20;0.75;;;;;;;22.06;47.08;98591.50;4920569;29;20028;-74
2021/08/08 12:51:58;;;;;;;3.45;0.60;;;;;;;22.05;44.68;98581.91;4920299;29;20032;-74
2021/08/08 12:54:23;;;;;;;1.88;0.80;;;;;;;22.47;43.35;98577.25;4920340;29;20032;-74
2021/08/08 12:56:49;;;;;;;7.10;4.05;;;;;;;22.58;42.25;98586.13;4920492;29;21247;-74
2021/08/08 12:59:14;;;;;;;2.33;0.60;;;;;;;22.12;43.33;98585.81;4920133;29;20397;-74
2021/08/08 13:01:42;;;;;;;1.35;0.50;;;;;;;22.33;42.91;98579.06;4919477;29;20312;-74
2021/08/08 13:04:11;;;;;;;1.35;0.77;;;;;;;22.53;43.07;98582.09;4920285;29;20056;-74
2021/08/08 13:06:36;;;;;;;2.20;1.30;;;;;;;22.56;42.51;98584.53;4920181;29;20036;-74
2021/08/08 13:09:02;;;;;;;1.65;0.80;;;;;;;22.06;42.20;98588.84;4920208;29;20070;-74
2021/08/08 13:11:30;;;;;;;0.63;0.55;;;;;;;22.22;42.12;98588.69;4919685;29;20063;-74
2021/08/08 13:13:55;;;;;;;1.85;0.60;;;;;;;22.43;41.50;98591.63;4921038;29;20102;-78
2021/08/08 13:16:20;;;;;;;2.80;0.70;;;;;;;22.73;41.72;98586.84;4920243;29;20449;-79
2021/08/08 13:18:46;;;;;;;1.83;0.70;;;;;;;22.43;41.19;98588.97;4919964;29;20023;-74
2021/08/08 13:21:12;;;;;;;1.83;0.88;;;;;;;22.47;41.98;98590.47;4920036;29;20042;-75
2021/08/08 13:23:38;;;;;;;21.40;12.48;;;;;;;22.67;41.97;98581.97;4919714;29;20031;-75
2021/08/08 13:26:05;;;;;;;1.38;0.82;;;;;;;22.69;41.55;98574.81;4920382;29;20039;-74
2021/08/08 13:28:30;;;;;;;2.90;1.02;;;;;;;23.02;42.50;98570.75;4919893;29;20035;-74
2021/08/08 13:30:56;;;;;;;6.28;1.55;;;;;;;23.12;42.29;98573.56;4920252;29;21497;-73
2021/08/08 13:33:21;;;;;;;2.53;1.10;;;;;;;23.00;42.21;98578.75;4920149;29;20080;-73
2021/08/08 13:35:47;;;;;;;2.10;0.90;;;;;;;22.79;43.29;98581.13;4920306;29;20032;-73
2021/08/08 13:38:12;;;;;;;3.10;0.75;;;;;;;22.73;41.81;98584.22;4919967;29;20090;-73
2021/08/08 13:40:37;;;;;;;2.88;0.90;;;;;;;22.62;42.16;98577.97;4922494;29;20032;-73
2021/08/08 13:43:03;;;;;;;3.10;1.02;;;;;;;22.88;42.15;98579.63;4924315;29;20031;-73
2021/08/08 13:45:29;;;;;;;5.20;2.25;;;;;;;23.12;41.79;98584.13;4925194;29;20055;-71
2021/08/08 13:47:54;;;;;;;2.92;1.20;;;;;;;23.41;41.13;98579.38;4923002;29;20057;-73
2021/08/08 13:50:21;;;;;;;6.68;0.70;;;;;;;23.54;41.51;98577.47;4923584;29;20028;-73
2021/08/08 13:52:46;;;;;;;4.30;1.08;;;;;;;23.35;41.34;98578.00;4922307;29;20031;-73
2021/08/08 13:55:16;;;;;;;3.85;0.75;;;;;;;23.73;42.70;98592.84;4922464;29;20040;-73
2021/08/08 13:57:41;;;;;;;4.32;0.82;;;;;;;23.22;40.86;98593.94;4923563;29;20496;-73
2021/08/08 14:00:07;;;;;;;1.92;0.80;;;;;;;23.51;41.84;98588.31;4923380;29;20028;-73
2021/08/08 14:02:33;;;;;;;1.60;1.00;;;;;;;22.95;42.89;98601.19;4923200;29;20028;-73
2021/08/08 14:04:59;;;;;;;2.03;1.00;;;;;;;22.29;44.27;98604.00;4923335;29;20511;-73
2021/08/08 14:07:24;;;;;;;2.95;0.90;;;;;;;21.86;44.65;98613.09;4923523;29;20035;-73
2021/08/08 14:09:50;;;;;;;1.65;0.88;;;;;;;21.39;45.90;98632.88;4923310;29;20026;-73
2021/08/08 14:12:15;;;;;;;3.15;0.80;;;;;;;20.55;48.45;98631.09;4923204;29;20028;-73
2021/08/08 14:14:42;;;;;;;10.70;1.25;;;;;;;20.24;55.66;98648.69;4923162;29;20034;-73
2021/08/08 14:17:08;;;;;;;2.22;0.82;;;;;;;20.23;61.88;98635.63;4923198;29;20028;-73
2021/08/08 14:19:33;;;;;;;1.20;1.00;;;;;;;20.43;61.64;98637.91;4923075;29;20441;-73
2021/08/08 14:21:59;;;;;;;4.30;1.08;;;;;;;20.73;59.90;98648.38;4922831;29;20038;-73
2021/08/08 14:24:24;;;;;;;4.43;0.95;;;;;;;21.17;59.23;98631.56;4923006;29;20069;-72
2021/08/08 14:26:49;;;;;;;2.88;0.77;;;;;;;21.04;56.13;98634.16;4922893;29;20728;-73
2021/08/08 14:29:15;;;;;;;1.80;0.80;;;;;;;21.01;54.15;98625.59;4922806;29;20389;-72
2021/08/08 14:31:40;;;;;;;1.13;0.88;;;;;;;21.64;51.79;98617.16;4922606;29;20021;-71
2021/08/08 14:34:05;;;;;;;3.08;1.52;;;;;;;21.38;53.83;98621.50;4922965;29;20079;-72
2021/08/08 14:36:31;;;;;;;5.13;1.02;;;;;;;20.93;49.28;98625.22;4922833;29;20068;-72
2021/08/08 14:38:56;;;;;;;2.60;1.13;;;;;;;20.72;49.00;98622.97;4922400;29;20047;-73
2021/08/08 14:41:21;;;;;;;3.80;1.20;;;;;;;20.78;49.81;98635.75;4922908;29;20035;-73
2021/08/08 14:43:47;;;;;;;2.50;0.90;;;;;;;20.65;49.57;98642.75;4923037;29;20054;-73
2021/08/08 14:46:12;;;;;;;2.15;1.00;;;;;;;20.67;49.93;98640.84;4922883;29;20023;-73
2021/08/08 14:48:37;;;;;;;2.58;0.90;;;;;;;20.82;50.54;98635.59;4923178;29;20047;-73
2021/08/08 14:51:03;;;;;;;2.83;1.30;;;;;;;20.91;49.89;98638.50;4921672;29;20764;-73
2021/08/08 14:53:28;;;;;;;3.63;1.00;;;;;;;21.15;50.02;98644.00;4922519;29;20067;-73
2021/08/08 14:55:53;;;;;;;5.57;1.10;;;;;;;21.32;49.85;98639.47;4922490;29;20404;-73
2021/08/08 14:58:19;;;;;;;1.20;1.00;;;;;;;21.12;49.03;98636.28;4922739;29;20034;-73
2021/08/08 15:00:44;;;;;;;3.70;1.20;;;;;;;21.59;49.37;98640.34;4922455;29;20027;-73
2021/08/08 15:03:09;;;;;;;4.72;1.30;;;;;;;22.47;49.19;98638.00;4920964;29;20036;-73
2021/08/08 15:05:35;;;;;;;1.67;1.08;;;;;;;22.95;47.60;98646.13;4922488;29;20486;-73
2021/08/08 15:08:01;;;;;;;3.75;1.40;;;;;;;22.50;46.05;98648.34;4921387;29;20027;-73
2021/08/08 15:10:26;;;;;;;3.05;1.38;;;;;;;22.00;44.91;98655.22;4922344;29;20083;-73
2021/08/08 15:12:53;;;;;;;2.42;1.35;;;;;;;21.74;43.61;98655.16;4922351;29;20035;-73
2021/08/08 15:15:19;;;;;;;1.77;0.80;;;;;;;21.59;45.12;98660.59;4921984;29;21006;-73
2021/08/08 15:17:44;;;;;;;3.45;0.82;;;;;;;21.11;44.85;98660.94;4921915;29;20034;-73
2021/08/08 15:20:10;;;;;;;2.40;0.85;;;;;;;20.97;45.95;98663.59;4922184;29;20638;-73
2021/08/08 15:22:36;;;;;;;3.95;1.00;;;;;;;20.75;45.82;98664.09;4921729;29;20174;-73
2021/08/08 15:25:02;;;;;;;0.60;0.60;;;;;;;20.52;46.47;98662.84;4922288;29;20813;-73
2021/08/08 15:27:27;;;;;;;1.25;0.90;;;;;;;20.57;47.08;98668.69;4922503;29;20031;-73
2021/08/08 15:29:53;;;;;;;0.82;0.77;;;;;;;20.84;46.94;98658.25;4922041;29;20074;-73
2021/08/08 15:32:18;;;;;;;3.50;0.90;;;;;;;20.92;46.32;98670.94;4921984;29;20036;-73
2021/08/08 15:34:43;;;;;;;3.00;1.33;;;;;;;20.86;45.82;98666.06;4922201;29;20503;-73
2021/08/08 15:37:09;;;;;;;1.70;0.63;;;;;;;20.85;44.90;98669.66;4922091;29;20694;-73
2021/08/08 15:39:35;;;;;;;4.38;0.93;;;;;;;20.77;46.38;98672.72;4922255;29;20603;-80
2021/08/08 15:42:01;;;;;;;2.60;0.88;;;;;;;20.78;46.06;98670.00;4922194;29;20042;-80
2021/08/08 15:44:26;;;;;;;2.10;0.80;;;;;;;20.94;45.42;98669.06;4924828;29;20440;-79
2021/08/08 15:46:51;;;;;;;3.58;0.90;;;;;;;21.20;44.06;98670.06;4921878;29;20056;-74
2021/08/08 15:49:16;;;;;;;3.45;0.80;;;;;;;20.92;44.45;98677.06;4921367;29;20035;-78
2021/08/08 15:51:42;;;;;;;2.78;0.80;;;;;;;20.72;45.20;98691.44;4921821;29;20030;-79
2021/08/08 15:54:07;;;;;;;3.75;1.25;;;;;;;20.39;45.75;98677.66;4922185;29;20038;-79
2021/08/08 15:56:32;;;;;;;1.73;0.93;;;;;;;20.27;46.88;98677.44;4922391;29;20039;-79
2021/08/08 15:58:58;;;;;;;2.58;1.17;;;;;;;20.24;44.88;98675.00;4920485;29;20031;-79
2021/08/08 16:01:23;;;;;;;1.42;0.65;;;;;;;20.37;46.25;98674.28;4922130;29;20175;-80
2021/08/08 16:03:48;;;;;;;2.22;1.02;;;;;;;20.29;46.11;98683.47;4921766;29;20153;-80
2021/08/08 16:06:14;;;;;;;2.45;1.10;;;;;;;20.24;46.92;98676.78;4922388;29;20026;-79
2021/08/08 16:08:39;;;;;;;3.42;0.98;;;;;;;20.39;47.63;98677.66;4921953;29;20042;-73
2021/08/08 16:11:09;;;;;;;1.60;0.75;;;;;;;20.41;47.42;98678.41;4920753;29;20402;-73
2021/08/08 16:13:34;;;;;;;1.13;0.70;;;;;;;20.44;47.73;98680.84;4920963;29;20112;-80
2021/08/08 16:16:00;;;;;;;4.90;1.05;;;;;;;20.62;47.61;98682.41;4923620;29;20103;-80
2021/08/08 16:18:25;;;;;;;2.53;0.75;;;;;;;20.68;44.78;98681.19;4923078;29;20032;-73
2021/08/08 16:20:52;;;;;;;3.67;0.95;;;;;;;20.81;45.62;98684.78;4921230;29;20035;-80
2021/08/08 16:23:17;;;;;;;1.02;0.80;;;;;;;20.70;45.84;98688.06;4921026;29;20058;-82
2021/08/08 16:25:43;;;;;;;2.83;1.30;;;;;;;20.58;44.83;98693.22;4921179;29;20370;-79
2021/08/08 16:28:08;;;;;;;2.17;1.10;;;;;;;20.56;44.98;98693.31;4920749;29;20044;-79
2021/08/08 16:30:34;;;;;;;2.85;1.20;;;;;;;20.75;44.49;98701.81;4921247;29;20031;-78
2021/08/08 16:32:59;;;;;;;7.68;4.65;;;;;;;20.50;45.33;98696.31;4921207;29;20405;-77
2021/08/08 16:35:24;;;;;;;74.88;52.70;;;;;;;20.66;44.99;98707.63;4921548;29;20024;-72
2021/08/08 16:37:52;;;;;;;9.85;3.85;;;;;;;21.05;44.53;98706.13;4920783;29;20481;-73
2021/08/08 16:40:17;;;;;;;2.58;1.17;;;;;;;21.43;43.53;98705.56;4920690;29;20114;-71
2021/08/08 16:42:43;;;;;;;3.13;1.10;;;;;;;21.41;45.15;98715.34;4919154;29;20553;-73
2021/08/08 16:45:08;;;;;;;2.85;1.10;;;;;;;21.60;43.94;98715.84;4920586;29;20087;-73
2021/08/08 16:47:34;;;;;;;5.13;1.55;;;;;;;21.36;44.38;98717.41;4920425;29;20023;-78
2021/08/08 16:49:59;;;;;;;5.38;1.75;;;;;;;21.16;44.40;98716.84;4920738;29;20502;-74
2021/08/08 16:52:24;;;;;;;6.50;3.80;;;;;;;21.08;44.76;98716.50;4920394;29;20052;-72
2021/08/08 16:54:50;;;;;;;2.28;1.10;;;;;;;21.11;45.31;98723.34;4920436;29;20123;-71
2021/08/08 16:57:15;;;;;;;2.63;0.90;;;;;;;20.90;44.93;98713.19;4919189;29;20503;-76
2021/08/08 16:59:40;;;;;;;3.03;1.20;;;;;;;21.13;45.57;98711.78;4920493;29;20048;-76
2021/08/08 17:02:06;;;;;;;2.42;1.20;;;;;;;21.00;45.40;98724.84;4919913;29;20044;-76
2021/08/08 17:04:31;;;;;;;3.28;1.20;;;;;;;21.08;45.69;98732.31;4920359;29;20024;-76
2021/08/08 17:06:56;;;;;;;3.47;1.35;;;;;;;21.34;45.46;98732.50;4920558;29;20646;-76
2021/08/08 17:09:21;;;;;;;0.98;0.75;;;;;;;21.75;43.66;98725.41;4920470;29;20084;-76
2021/08/08 17:11:47;;;;;;;3.65;1.20;;;;;;;21.98;42.54;98736.28;4920351;29;20028;-76
2021/08/08 17:14:12;;;;;;;1.70;0.90;;;;;;;22.39;42.25;98730.94;4919665;29;20102;-76
2021/08/08 17:16:38;;;;;;;6.53;1.40;;;;;;;22.59;41.14;98732.25;4920194;29;20056;-76
2021/08/08 17:19:03;;;;;;;2.97;1.20;;;;;;;22.46;40.44;98726.09;4918801;29;20056;-77
2021/08/08 17:21:28;;;;;;;0.90;0.90;;;;;;;22.23;40.46;98735.53;4920206;29;20047;-76
2021/08/08 17:23:54;;;;;;;2.15;1.10;;;;;;;21.89;40.89;98731.59;4919976;29;20043;-76
2021/08/08 17:26:19;;;;;;;2.10;0.80;;;;;;;21.36;41.85;98733.22;4920005;29;20047;-77
2021/08/08 17:28:44;;;;;;;3.05;1.08;;;;;;;21.08;42.67;98740.22;4920180;29;20023;-76
2021/08/08 17:31:10;;;;;;;5.32;3.60;;;;;;;20.89;42.89;98739.63;4920496;29;20117;-76
2021/08/08 17:33:36;;;;;;;1.05;0.73;;;;;;;20.85;42.44;98741.59;4920004;29;20131;-79
2021/08/08 17:36:01;;;;;;;1.45;0.93;;;;;;;20.76;43.84;98740.38;4920119;29;20734;-76
2021/08/08 17:38:27;;;;;;;1.75;0.80;;;;;;;20.75;43.92;98743.09;4920129;29;20039;-76
2021/08/08 17:40:53;;;;;;;1.15;1.05;;;;;;;20.73;44.29;98745.81;4920038;29;20114;-76
2021/08/08 17:43:19;;;;;;;1.90;1.10;;;;;;;20.62;44.87;98744.75;4920143;29;20032;-77
2021/08/08 17:45:44;;;;;;;3.08;0.80;;;;;;;20.66;45.18;98741.84;4920266;29;20028;-77
2021/08/08 17:48:14;;;;;;;3.42;1.08;;;;;;;20.59;45.67;98758.94;4919899;29;20039;-76
2021/08/08 17:50:40;;;;;;;2.33;1.27;;;;;;;20.46;45.45;98752.69;4920051;29;20028;-76
2021/08/08 17:53:05;;;;;;;2.38;1.05;;;;;;;20.20;45.37;98757.66;4919773;29;20042;-76
2021/08/08 17:55:30;;;;;;;13.23;1.10;;;;;;;20.11;46.34;98758.19;4919742;29;20040;-76
2021/08/08 17:57:57;;;;;;;1.92;0.80;;;;;;;19.96;46.60;98759.06;4919675;29;20051;-76
2021/08/08 18:00:22;;;;;;;4.25;1.00;;;;;;;19.94;47.55;98771.47;4919514;29;20023;-77
2021/08/08 18:02:47;;;;;;;10.25;5.45;;;;;;;19.85;47.52;98767.56;4919317;29;20056;-77
2021/08/08 18:05:13;;;;;;;1.85;0.95;;;;;;;19.67;48.58;98769.44;4919835;29;20035;-77
2021/08/08 18:07:38;;;;;;;2.55;1.30;;;;;;;19.63;49.62;98778.44;4919589;29;20408;-77
2021/08/08 18:10:04;;;;;;;1.98;1.23;;;;;;;19.65;49.85;98778.34;4919597;29;20020;-77
2021/08/08 18:12:33;;;;;;;2.50;1.38;;;;;;;19.53;48.71;98785.06;4919339;29;20517;-77
2021/08/08 18:14:59;;;;;;;3.58;1.23;;;;;;;19.62;49.92;98789.88;4919615;29;20028;-77
2021/08/08 18:17:25;;;;;;;3.05;1.23;;;;;;;19.62;51.45;98787.22;4919834;29;20038;-77
2021/08/08 18:19:50;;;;;;;1.58;0.80;;;;;;;19.39;50.54;98795.47;4919232;29;20497;-76
2021/08/08 18:22:15;;;;;;;5.18;2.25;;;;;;;19.41;50.23;98804.16;4919684;29;20726;-77
2021/08/08 18:24:41;;;;;;;2.70;1.48;;;;;;;19.44;51.24;98804.00;4918596;29;21401;-76
2021/08/08 18:27:07;;;;;;;4.28;2.40;;;;;;;19.29;51.92;98805.63;4922409;29;20499;-76
2021/08/08 18:29:32;;;;;;;4.38;3.20;;;;;;;18.95;52.38;98804.81;4921383;29;20031;-76
2021/08/08 18:31:57;;;;;;;3.80;2.42;;;;;;;18.87;53.33;98808.75;4922683;29;20031;-76
2021/08/08 18:34:23;;;;;;;6.82;1.95;;;;;;;18.52;55.33;98808.72;4922530;29;20122;-76